Aviation Digital Data Service (ADDS)

Output produced by METARs form (1911 UTC 19 April 2019)
found at http://www.aviationweather.gov/metar/data/
 
METAR text: EKVG 191850Z AUTO 16010KT 9999NDV BKN008/// 09/07 Q1022 RMK SCT009/// SCT016/// BKN043/// BKN110/// WIND SKEID 16006G16KT 070V210
Conditions at: EKVG (SORVAAG/VAGAR , DK) observed 1850 UTC 19 April 2019
Temperature: 9.0°C (48°F)
Dewpoint: 7.0°C (45°F) [RH = 87%]
Pressure (altimeter): 30.18 inches Hg (1022.0 mb)
Winds: from the SSE (160 degrees) at 12 MPH (10 knots; 5.1 m/s)
Visibility: missing
Ceiling: 800 feet AGL
Clouds: broken clouds at 800 feet AGL
Weather: no significant weather observed at this time

METAR text: EKVG 191821Z 17014G24KT 8000 SCT006 SCT012 10/08 Q1021 RMK WIND SKEID 16016G26KT
Conditions at: EKVG (SORVAAG/VAGAR , DK) observed 1821 UTC 19 April 2019
Temperature: 10.0°C (50°F)
Dewpoint: 8.0°C (46°F) [RH = 87%]
Pressure (altimeter): 30.15 inches Hg (1021.0 mb)
Winds: from the S (170 degrees) at 16 MPH (14 knots; 7.2 m/s)
gusting to 28 MPH (24 knots; 12.3 m/s)
Visibility: 5 miles ( 8 km)
Ceiling: at least 12,000 feet AGL
Clouds: scattered clouds at 600 feet AGL
scattered clouds at 1200 feet AGL
Weather: no significant weather observed at this time

METAR text: EKVG 191750Z 16014KT 8000 SCT005 10/08 Q1021 RMK WIND SKEID 15016G26KT
Conditions at: EKVG (SORVAAG/VAGAR , DK) observed 1750 UTC 19 April 2019
Temperature: 10.0°C (50°F)
Dewpoint: 8.0°C (46°F) [RH = 87%]
Pressure (altimeter): 30.15 inches Hg (1021.0 mb)
Winds: from the SSE (160 degrees) at 16 MPH (14 knots; 7.2 m/s)
Visibility: 5 miles ( 8 km)
Ceiling: at least 12,000 feet AGL
Clouds: scattered clouds at 500 feet AGL
Weather: no significant weather observed at this time

METAR text: EKVG 191720Z 16013KT 8000 SCT007 10/08 Q1022 RMK WIND SKEID 15017KT
Conditions at: EKVG (SORVAAG/VAGAR , DK) observed 1720 UTC 19 April 2019
Temperature: 10.0°C (50°F)
Dewpoint: 8.0°C (46°F) [RH = 87%]
Pressure (altimeter): 30.18 inches Hg (1022.0 mb)
Winds: from the SSE (160 degrees) at 15 MPH (13 knots; 6.7 m/s)
Visibility: 5 miles ( 8 km)
Ceiling: at least 12,000 feet AGL
Clouds: scattered clouds at 700 feet AGL
Weather: no significant weather observed at this time

METAR text: EKVG 191650Z 16015KT 8000 SCT007 10/08 Q1022 RMK WIND SKEID 15016KT
Conditions at: EKVG (SORVAAG/VAGAR , DK) observed 1650 UTC 19 April 2019
Temperature: 10.0°C (50°F)
Dewpoint: 8.0°C (46°F) [RH = 87%]
Pressure (altimeter): 30.18 inches Hg (1022.0 mb)
Winds: from the SSE (160 degrees) at 17 MPH (15 knots; 7.7 m/s)
Visibility: 5 miles ( 8 km)
Ceiling: at least 12,000 feet AGL
Clouds: scattered clouds at 700 feet AGL
Weather: no significant weather observed at this time

METAR text: EKVG 191621Z 16013KT 8000 SCT007 10/08 Q1022 RMK WIND SKEID 15013KT 120V190
Conditions at: EKVG (SORVAAG/VAGAR , DK) observed 1621 UTC 19 April 2019
Temperature: 10.0°C (50°F)
Dewpoint: 8.0°C (46°F) [RH = 87%]
Pressure (altimeter): 30.18 inches Hg (1022.0 mb)
Winds: from the SSE (160 degrees) at 15 MPH (13 knots; 6.7 m/s)
Visibility: 5 miles ( 8 km)
Ceiling: at least 12,000 feet AGL
Clouds: scattered clouds at 700 feet AGL
Weather: no significant weather observed at this time

METAR text: EKVG 191551Z 16012KT 8000 SCT007 11/08 Q1022 RMK WIND SKEID 14014G25KT 100V190
Conditions at: EKVG (SORVAAG/VAGAR , DK) observed 1551 UTC 19 April 2019
Temperature: 11.0°C (52°F)
Dewpoint: 8.0°C (46°F) [RH = 82%]
Pressure (altimeter): 30.18 inches Hg (1022.0 mb)
Winds: from the SSE (160 degrees) at 14 MPH (12 knots; 6.2 m/s)
Visibility: 5 miles ( 8 km)
Ceiling: at least 12,000 feet AGL
Clouds: scattered clouds at 700 feet AGL
Weather: no significant weather observed at this time

METAR text: EKVG 191520Z 17015KT 8000 FEW005 FEW012 11/08 Q1023 RMK WIND SKEID 16019KT
Conditions at: EKVG (SORVAAG/VAGAR , DK) observed 1520 UTC 19 April 2019
Temperature: 11.0°C (52°F)
Dewpoint: 8.0°C (46°F) [RH = 82%]
Pressure (altimeter): 30.21 inches Hg (1023.0 mb)
Winds: from the S (170 degrees) at 17 MPH (15 knots; 7.7 m/s)
Visibility: 5 miles ( 8 km)
Ceiling: at least 12,000 feet AGL
Clouds: few clouds at 500 feet AGL
few clouds at 1200 feet AGL
Weather: no significant weather observed at this time

METAR text: EKVG 191451Z 17017KT 8000 FEW005 FEW012 12/08 Q1023 RMK WIND SKEID 17022KT
Conditions at: EKVG (SORVAAG/VAGAR , DK) observed 1451 UTC 19 April 2019
Temperature: 12.0°C (54°F)
Dewpoint: 8.0°C (46°F) [RH = 76%]
Pressure (altimeter): 30.21 inches Hg (1023.0 mb)
Winds: from the S (170 degrees) at 20 MPH (17 knots; 8.7 m/s)
Visibility: 5 miles ( 8 km)
Ceiling: at least 12,000 feet AGL
Clouds: few clouds at 500 feet AGL
few clouds at 1200 feet AGL
Weather: no significant weather observed at this time

METAR text: EKVG 191423Z 17018KT CAVOK 12/08 Q1023 RMK WIND SKEID 17018KT
Conditions at: EKVG (SORVAAG/VAGAR , DK) observed 1423 UTC 19 April 2019
Temperature: 12.0°C (54°F)
Dewpoint: 8.0°C (46°F) [RH = 76%]
Pressure (altimeter): 30.21 inches Hg (1023.0 mb)
Winds: from the S (170 degrees) at 21 MPH (18 knots; 9.3 m/s)
Visibility: 6 or more miles (10+ km)
Ceiling: ceiling and visibility are OK
Clouds: unknown
Weather: no significant weather observed at this time

METAR text: EKVG 191350Z AUTO 17016KT 9999NDV NCD 12/08 Q1023 RMK NCD WIND SKEID 16020KT
Conditions at: EKVG (SORVAAG/VAGAR , DK) observed 1350 UTC 19 April 2019
Temperature: 12.0°C (54°F)
Dewpoint: 8.0°C (46°F) [RH = 76%]
Pressure (altimeter): 30.21 inches Hg (1023.0 mb)
Winds: from the S (170 degrees) at 18 MPH (16 knots; 8.2 m/s)
Visibility: missing
Ceiling: at least 12,000 feet AGL
Clouds: sky clear below 12,000 feet AGL
Weather: no significant weather observed at this time

METAR text: EKVG 191320Z AUTO 16015KT 9999NDV NCD 13/08 Q1024 RMK NCD WIND SKEID 15020G30KT
Conditions at: EKVG (SORVAAG/VAGAR , DK) observed 1320 UTC 19 April 2019
Temperature: 13.0°C (55°F)
Dewpoint: 8.0°C (46°F) [RH = 72%]
Pressure (altimeter): 30.24 inches Hg (1024.0 mb)
Winds: from the SSE (160 degrees) at 17 MPH (15 knots; 7.7 m/s)
Visibility: missing
Ceiling: at least 12,000 feet AGL
Clouds: sky clear below 12,000 feet AGL
Weather: no significant weather observed at this time

METAR text: EKVG 191250Z AUTO 16015KT 9999NDV NCD 13/08 Q1024 RMK NCD WIND SKEID 16021KT
Conditions at: EKVG (SORVAAG/VAGAR , DK) observed 1250 UTC 19 April 2019
Temperature: 13.0°C (55°F)
Dewpoint: 8.0°C (46°F) [RH = 72%]
Pressure (altimeter): 30.24 inches Hg (1024.0 mb)
Winds: from the SSE (160 degrees) at 17 MPH (15 knots; 7.7 m/s)
Visibility: missing
Ceiling: at least 12,000 feet AGL
Clouds: sky clear below 12,000 feet AGL
Weather: no significant weather observed at this time

METAR text: EKVG 191220Z AUTO 16016KT 9000NDV NCD 13/08 Q1024 RMK NCD WIND SKEID 15021KT
Conditions at: EKVG (SORVAAG/VAGAR , DK) observed 1220 UTC 19 April 2019
Temperature: 13.0°C (55°F)
Dewpoint: 8.0°C (46°F) [RH = 72%]
Pressure (altimeter): 30.24 inches Hg (1024.0 mb)
Winds: from the SSE (160 degrees) at 18 MPH (16 knots; 8.2 m/s)
Visibility: missing
Ceiling: at least 12,000 feet AGL
Clouds: sky clear below 12,000 feet AGL
Weather: no significant weather observed at this time

METAR text: EKVG 191150Z AUTO 16017KT 9999NDV NCD 13/08 Q1024 RMK NCD WIND SKEID 15021KT
Conditions at: EKVG (SORVAAG/VAGAR , DK) observed 1150 UTC 19 April 2019
Temperature: 13.0°C (55°F)
Dewpoint: 8.0°C (46°F) [RH = 72%]
Pressure (altimeter): 30.24 inches Hg (1024.0 mb)
Winds: from the SSE (160 degrees) at 20 MPH (17 knots; 8.7 m/s)
Visibility: missing
Ceiling: at least 12,000 feet AGL
Clouds: sky clear below 12,000 feet AGL
Weather: no significant weather observed at this time

METAR text: EKVG 191120Z AUTO 16019KT 9999NDV NCD 13/08 Q1024 RMK NCD WIND SKEID 15025KT
Conditions at: EKVG (SORVAAG/VAGAR , DK) observed 1120 UTC 19 April 2019
Temperature: 13.0°C (55°F)
Dewpoint: 8.0°C (46°F) [RH = 72%]
Pressure (altimeter): 30.24 inches Hg (1024.0 mb)
Winds: from the SSE (160 degrees) at 22 MPH (19 knots; 9.8 m/s)
Visibility: missing
Ceiling: at least 12,000 feet AGL
Clouds: sky clear below 12,000 feet AGL
Weather: no significant weather observed at this time

METAR text: EKVG 191050Z AUTO 16019KT 9999NDV NCD 12/08 Q1024 RMK NCD WIND SKEID 15026KT
Conditions at: EKVG (SORVAAG/VAGAR , DK) observed 1050 UTC 19 April 2019
Temperature: 12.0°C (54°F)
Dewpoint: 8.0°C (46°F) [RH = 76%]
Pressure (altimeter): 30.24 inches Hg (1024.0 mb)
Winds: from the SSE (160 degrees) at 22 MPH (19 knots; 9.8 m/s)
Visibility: missing
Ceiling: at least 12,000 feet AGL
Clouds: sky clear below 12,000 feet AGL
Weather: no significant weather observed at this time

METAR text: EKVG 191020Z AUTO 16017KT 9999NDV NCD 12/07 Q1025 RMK NCD WIND SKEID 16023KT
Conditions at: EKVG (SORVAAG/VAGAR , DK) observed 1020 UTC 19 April 2019
Temperature: 12.0°C (54°F)
Dewpoint: 7.0°C (45°F) [RH = 71%]
Pressure (altimeter): 30.27 inches Hg (1025.0 mb)
Winds: from the SSE (160 degrees) at 20 MPH (17 knots; 8.7 m/s)
Visibility: missing
Ceiling: at least 12,000 feet AGL
Clouds: sky clear below 12,000 feet AGL
Weather: no significant weather observed at this time

METAR text: EKVG 190950Z AUTO 16015KT 9999NDV NCD 12/07 Q1025 RMK NCD WIND SKEID 16023KT
Conditions at: EKVG (SORVAAG/VAGAR , DK) observed 0950 UTC 19 April 2019
Temperature: 12.0°C (54°F)
Dewpoint: 7.0°C (45°F) [RH = 71%]
Pressure (altimeter): 30.27 inches Hg (1025.0 mb)
Winds: from the SSE (160 degrees) at 17 MPH (15 knots; 7.7 m/s)
Visibility: missing
Ceiling: at least 12,000 feet AGL
Clouds: sky clear below 12,000 feet AGL
Weather: no significant weather observed at this time

METAR text: EKVG 190920Z AUTO 16016KT 9999NDV NCD 12/07 Q1025 RMK NCD WIND SKEID 16022KT
Conditions at: EKVG (SORVAAG/VAGAR , DK) observed 0920 UTC 19 April 2019
Temperature: 12.0°C (54°F)
Dewpoint: 7.0°C (45°F) [RH = 71%]
Pressure (altimeter): 30.27 inches Hg (1025.0 mb)
Winds: from the SSE (160 degrees) at 18 MPH (16 knots; 8.2 m/s)
Visibility: missing
Ceiling: at least 12,000 feet AGL
Clouds: sky clear below 12,000 feet AGL
Weather: no significant weather observed at this time

METAR text: EKVG 190850Z AUTO 16016KT 9999NDV NCD 11/07 Q1025 RMK NCD WIND SKEID 16024KT
Conditions at: EKVG (SORVAAG/VAGAR , DK) observed 0850 UTC 19 April 2019
Temperature: 11.0°C (52°F)
Dewpoint: 7.0°C (45°F) [RH = 76%]
Pressure (altimeter): 30.27 inches Hg (1025.0 mb)
Winds: from the SSE (160 degrees) at 18 MPH (16 knots; 8.2 m/s)
Visibility: missing
Ceiling: at least 12,000 feet AGL
Clouds: sky clear below 12,000 feet AGL
Weather: no significant weather observed at this time

METAR text: EKVG 190820Z AUTO 17017KT 9999NDV NCD 11/07 Q1026 RMK NCD WIND SKEID 17022KT
Conditions at: EKVG (SORVAAG/VAGAR , DK) observed 0820 UTC 19 April 2019
Temperature: 11.0°C (52°F)
Dewpoint: 7.0°C (45°F) [RH = 76%]
Pressure (altimeter): 30.30 inches Hg (1026.0 mb)
Winds: from the S (170 degrees) at 20 MPH (17 knots; 8.7 m/s)
Visibility: missing
Ceiling: at least 12,000 feet AGL
Clouds: sky clear below 12,000 feet AGL
Weather: no significant weather observed at this time

METAR text: EKVG 190750Z AUTO 17016KT 9999NDV NCD 11/07 Q1026 RMK FEW024/// WIND SKEID 17021KT
Conditions at: EKVG (SORVAAG/VAGAR , DK) observed 0750 UTC 19 April 2019
Temperature: 11.0°C (52°F)
Dewpoint: 7.0°C (45°F) [RH = 76%]
Pressure (altimeter): 30.30 inches Hg (1026.0 mb)
Winds: from the S (170 degrees) at 18 MPH (16 knots; 8.2 m/s)
Visibility: missing
Ceiling: at least 12,000 feet AGL
Clouds: sky clear below 12,000 feet AGL
Weather: no significant weather observed at this time

METAR text: EKVG 190720Z AUTO 17014KT 9999NDV FEW190/// 11/07 Q1026 RMK SCT026/// WIND SKEID 17021KT
Conditions at: EKVG (SORVAAG/VAGAR , DK) observed 0720 UTC 19 April 2019
Temperature: 11.0°C (52°F)
Dewpoint: 7.0°C (45°F) [RH = 76%]
Pressure (altimeter): 30.30 inches Hg (1026.0 mb)
Winds: from the S (170 degrees) at 16 MPH (14 knots; 7.2 m/s)
Visibility: missing
Ceiling: at least 12,000 feet AGL
Clouds: few clouds at 19000 feet AGL
Weather: no significant weather observed at this time

METAR text: EKVG 190650Z AUTO 17015KT 9999NDV NCD 11/07 Q1025 RMK NCD WIND SKEID 17023KT
Conditions at: EKVG (SORVAAG/VAGAR , DK) observed 0650 UTC 19 April 2019
Temperature: 11.0°C (52°F)
Dewpoint: 7.0°C (45°F) [RH = 76%]
Pressure (altimeter): 30.27 inches Hg (1025.0 mb)
Winds: from the S (170 degrees) at 17 MPH (15 knots; 7.7 m/s)
Visibility: missing
Ceiling: at least 12,000 feet AGL
Clouds: sky clear below 12,000 feet AGL
Weather: no significant weather observed at this time

METAR text: EKVG 190620Z AUTO 17014KT 9999NDV NCD 10/07 Q1025 RMK NCD WIND SKEID 17024KT
Conditions at: EKVG (SORVAAG/VAGAR , DK) observed 0620 UTC 19 April 2019
Temperature: 10.0°C (50°F)
Dewpoint: 7.0°C (45°F) [RH = 82%]
Pressure (altimeter): 30.27 inches Hg (1025.0 mb)
Winds: from the S (170 degrees) at 16 MPH (14 knots; 7.2 m/s)
Visibility: missing
Ceiling: at least 12,000 feet AGL
Clouds: sky clear below 12,000 feet AGL
Weather: no significant weather observed at this time

METAR text: EKVG 190550Z AUTO 17015KT 9999NDV NCD 10/07 Q1025 RMK NCD WIND SKEID 17025KT
Conditions at: EKVG (SORVAAG/VAGAR , DK) observed 0550 UTC 19 April 2019
Temperature: 10.0°C (50°F)
Dewpoint: 7.0°C (45°F) [RH = 82%]
Pressure (altimeter): 30.27 inches Hg (1025.0 mb)
Winds: from the S (170 degrees) at 17 MPH (15 knots; 7.7 m/s)
Visibility: missing
Ceiling: at least 12,000 feet AGL
Clouds: sky clear below 12,000 feet AGL
Weather: no significant weather observed at this time

METAR text: EKVG 190520Z AUTO 16013KT 9999NDV NCD 10/07 Q1025 RMK NCD WIND SKEID 17021KT
Conditions at: EKVG (SORVAAG/VAGAR , DK) observed 0520 UTC 19 April 2019
Temperature: 10.0°C (50°F)
Dewpoint: 7.0°C (45°F) [RH = 82%]
Pressure (altimeter): 30.27 inches Hg (1025.0 mb)
Winds: from the SSE (160 degrees) at 15 MPH (13 knots; 6.7 m/s)
Visibility: missing
Ceiling: at least 12,000 feet AGL
Clouds: sky clear below 12,000 feet AGL
Weather: no significant weather observed at this time

METAR text: EKVG 190450Z AUTO 17012KT 9999NDV NCD 10/07 Q1026 RMK NCD WIND SKEID 17018KT
Conditions at: EKVG (SORVAAG/VAGAR , DK) observed 0450 UTC 19 April 2019
Temperature: 10.0°C (50°F)
Dewpoint: 7.0°C (45°F) [RH = 82%]
Pressure (altimeter): 30.30 inches Hg (1026.0 mb)
Winds: from the S (170 degrees) at 14 MPH (12 knots; 6.2 m/s)
Visibility: missing
Ceiling: at least 12,000 feet AGL
Clouds: sky clear below 12,000 feet AGL
Weather: no significant weather observed at this time

METAR text: EKVG 190420Z AUTO 17012KT 9999NDV NCD 09/07 Q1026 RMK NCD WIND SKEID 17017KT
Conditions at: EKVG (SORVAAG/VAGAR , DK) observed 0420 UTC 19 April 2019
Temperature: 9.0°C (48°F)
Dewpoint: 7.0°C (45°F) [RH = 87%]
Pressure (altimeter): 30.30 inches Hg (1026.0 mb)
Winds: from the S (170 degrees) at 14 MPH (12 knots; 6.2 m/s)
Visibility: missing
Ceiling: at least 12,000 feet AGL
Clouds: sky clear below 12,000 feet AGL
Weather: no significant weather observed at this time

METAR text: EKVG 190350Z AUTO 16012KT 9999NDV NCD 09/07 Q1026 RMK NCD WIND SKEID 17016KT
Conditions at: EKVG (SORVAAG/VAGAR , DK) observed 0350 UTC 19 April 2019
Temperature: 9.0°C (48°F)
Dewpoint: 7.0°C (45°F) [RH = 87%]
Pressure (altimeter): 30.30 inches Hg (1026.0 mb)
Winds: from the SSE (160 degrees) at 14 MPH (12 knots; 6.2 m/s)
Visibility: missing
Ceiling: at least 12,000 feet AGL
Clouds: sky clear below 12,000 feet AGL
Weather: no significant weather observed at this time

METAR text: EKVG 190320Z AUTO 16011KT 9999NDV NCD 09/07 Q1026 RMK NCD WIND SKEID 16017KT
Conditions at: EKVG (SORVAAG/VAGAR , DK) observed 0320 UTC 19 April 2019
Temperature: 9.0°C (48°F)
Dewpoint: 7.0°C (45°F) [RH = 87%]
Pressure (altimeter): 30.30 inches Hg (1026.0 mb)
Winds: from the SSE (160 degrees) at 13 MPH (11 knots; 5.7 m/s)
Visibility: missing
Ceiling: at least 12,000 feet AGL
Clouds: sky clear below 12,000 feet AGL
Weather: no significant weather observed at this time

METAR text: EKVG 190250Z AUTO 17011KT 9999NDV NCD 09/07 Q1026 RMK NCD WIND SKEID 16018KT
Conditions at: EKVG (SORVAAG/VAGAR , DK) observed 0250 UTC 19 April 2019
Temperature: 9.0°C (48°F)
Dewpoint: 7.0°C (45°F) [RH = 87%]
Pressure (altimeter): 30.30 inches Hg (1026.0 mb)
Winds: from the S (170 degrees) at 13 MPH (11 knots; 5.7 m/s)
Visibility: missing
Ceiling: at least 12,000 feet AGL
Clouds: sky clear below 12,000 feet AGL
Weather: no significant weather observed at this time

METAR text: EKVG 190220Z AUTO 17012KT 9999NDV NCD 09/07 Q1026 RMK NCD WIND SKEID 17019KT
Conditions at: EKVG (SORVAAG/VAGAR , DK) observed 0220 UTC 19 April 2019
Temperature: 9.0°C (48°F)
Dewpoint: 7.0°C (45°F) [RH = 87%]
Pressure (altimeter): 30.30 inches Hg (1026.0 mb)
Winds: from the S (170 degrees) at 14 MPH (12 knots; 6.2 m/s)
Visibility: missing
Ceiling: at least 12,000 feet AGL
Clouds: sky clear below 12,000 feet AGL
Weather: no significant weather observed at this time

METAR text: EKVG 190150Z AUTO 17013KT 9999NDV FEW130/// 09/07 Q1026 RMK NCD WIND SKEID 17019KT
Conditions at: EKVG (SORVAAG/VAGAR , DK) observed 0150 UTC 19 April 2019
Temperature: 9.0°C (48°F)
Dewpoint: 7.0°C (45°F) [RH = 87%]
Pressure (altimeter): 30.30 inches Hg (1026.0 mb)
Winds: from the S (170 degrees) at 15 MPH (13 knots; 6.7 m/s)
Visibility: missing
Ceiling: at least 12,000 feet AGL
Clouds: few clouds at 13000 feet AGL
Weather: no significant weather observed at this time

METAR text: EKVG 190120Z AUTO 17013KT 9999NDV NCD 09/07 Q1026 RMK NCD WIND SKEID 16018KT
Conditions at: EKVG (SORVAAG/VAGAR , DK) observed 0120 UTC 19 April 2019
Temperature: 9.0°C (48°F)
Dewpoint: 7.0°C (45°F) [RH = 87%]
Pressure (altimeter): 30.30 inches Hg (1026.0 mb)
Winds: from the S (170 degrees) at 15 MPH (13 knots; 6.7 m/s)
Visibility: missing
Ceiling: at least 12,000 feet AGL
Clouds: sky clear below 12,000 feet AGL
Weather: no significant weather observed at this time

METAR text: EKVG 190050Z AUTO 17014KT 9999NDV NCD 10/07 Q1026 RMK NCD WIND SKEID 17017KT
Conditions at: EKVG (SORVAAG/VAGAR , DK) observed 0050 UTC 19 April 2019
Temperature: 10.0°C (50°F)
Dewpoint: 7.0°C (45°F) [RH = 82%]
Pressure (altimeter): 30.30 inches Hg (1026.0 mb)
Winds: from the S (170 degrees) at 16 MPH (14 knots; 7.2 m/s)
Visibility: missing
Ceiling: at least 12,000 feet AGL
Clouds: sky clear below 12,000 feet AGL
Weather: no significant weather observed at this time

METAR text: EKVG 190020Z AUTO 16013KT 9999NDV NCD 10/07 Q1026 RMK NCD WIND SKEID 17018KT
Conditions at: EKVG (SORVAAG/VAGAR , DK) observed 0020 UTC 19 April 2019
Temperature: 10.0°C (50°F)
Dewpoint: 7.0°C (45°F) [RH = 82%]
Pressure (altimeter): 30.30 inches Hg (1026.0 mb)
Winds: from the SSE (160 degrees) at 15 MPH (13 knots; 6.7 m/s)
Visibility: missing
Ceiling: at least 12,000 feet AGL
Clouds: sky clear below 12,000 feet AGL
Weather: no significant weather observed at this time

METAR text: EKVG 182350Z AUTO 16014KT 9999NDV NCD 09/06 Q1026 RMK NCD WIND SKEID 17020KT
Conditions at: EKVG (SORVAAG/VAGAR , DK) observed 2350 UTC 18 April 2019
Temperature: 9.0°C (48°F)
Dewpoint: 6.0°C (43°F) [RH = 81%]
Pressure (altimeter): 30.30 inches Hg (1026.0 mb)
Winds: from the SSE (160 degrees) at 16 MPH (14 knots; 7.2 m/s)
Visibility: missing
Ceiling: at least 12,000 feet AGL
Clouds: sky clear below 12,000 feet AGL
Weather: no significant weather observed at this time

METAR text: EKVG 182320Z AUTO 17014KT 9999NDV NCD 10/06 Q1026 RMK NCD WIND SKEID 17021KT
Conditions at: EKVG (SORVAAG/VAGAR , DK) observed 2320 UTC 18 April 2019
Temperature: 10.0°C (50°F)
Dewpoint: 6.0°C (43°F) [RH = 76%]
Pressure (altimeter): 30.30 inches Hg (1026.0 mb)
Winds: from the S (170 degrees) at 16 MPH (14 knots; 7.2 m/s)
Visibility: missing
Ceiling: at least 12,000 feet AGL
Clouds: sky clear below 12,000 feet AGL
Weather: no significant weather observed at this time

METAR text: EKVG 182250Z AUTO 16014KT 9999NDV NCD 10/06 Q1026 RMK NCD WIND SKEID 17018KT
Conditions at: EKVG (SORVAAG/VAGAR , DK) observed 2250 UTC 18 April 2019
Temperature: 10.0°C (50°F)
Dewpoint: 6.0°C (43°F) [RH = 76%]
Pressure (altimeter): 30.30 inches Hg (1026.0 mb)
Winds: from the SSE (160 degrees) at 16 MPH (14 knots; 7.2 m/s)
Visibility: missing
Ceiling: at least 12,000 feet AGL
Clouds: sky clear below 12,000 feet AGL
Weather: no significant weather observed at this time

METAR text: EKVG 182220Z AUTO 16013KT 9999NDV NCD 09/06 Q1026 RMK NCD WIND SKEID 17018KT
Conditions at: EKVG (SORVAAG/VAGAR , DK) observed 2220 UTC 18 April 2019
Temperature: 9.0°C (48°F)
Dewpoint: 6.0°C (43°F) [RH = 81%]
Pressure (altimeter): 30.30 inches Hg (1026.0 mb)
Winds: from the SSE (160 degrees) at 15 MPH (13 knots; 6.7 m/s)
Visibility: missing
Ceiling: at least 12,000 feet AGL
Clouds: sky clear below 12,000 feet AGL
Weather: no significant weather observed at this time

METAR text: EKVG 182150Z AUTO 16012KT 9999NDV NCD 09/06 Q1026 RMK NCD WIND SKEID 16016KT
Conditions at: EKVG (SORVAAG/VAGAR , DK) observed 2150 UTC 18 April 2019
Temperature: 9.0°C (48°F)
Dewpoint: 6.0°C (43°F) [RH = 81%]
Pressure (altimeter): 30.30 inches Hg (1026.0 mb)
Winds: from the SSE (160 degrees) at 14 MPH (12 knots; 6.2 m/s)
Visibility: missing
Ceiling: at least 12,000 feet AGL
Clouds: sky clear below 12,000 feet AGL
Weather: no significant weather observed at this time

METAR text: EKVG 182120Z AUTO 16012KT 9999NDV FEW230/// 09/06 Q1026 RMK NCD WIND SKEID 17016KT
Conditions at: EKVG (SORVAAG/VAGAR , DK) observed 2120 UTC 18 April 2019
Temperature: 9.0°C (48°F)
Dewpoint: 6.0°C (43°F) [RH = 81%]
Pressure (altimeter): 30.30 inches Hg (1026.0 mb)
Winds: from the SSE (160 degrees) at 14 MPH (12 knots; 6.2 m/s)
Visibility: missing
Ceiling: at least 12,000 feet AGL
Clouds: few clouds at 23000 feet AGL
Weather: no significant weather observed at this time

METAR text: EKVG 182050Z AUTO 16013KT 9999NDV NCD 09/06 Q1026 RMK NCD WIND SKEID 17017KT
Conditions at: EKVG (SORVAAG/VAGAR , DK) observed 2050 UTC 18 April 2019
Temperature: 9.0°C (48°F)
Dewpoint: 6.0°C (43°F) [RH = 81%]
Pressure (altimeter): 30.30 inches Hg (1026.0 mb)
Winds: from the SSE (160 degrees) at 15 MPH (13 knots; 6.7 m/s)
Visibility: missing
Ceiling: at least 12,000 feet AGL
Clouds: sky clear below 12,000 feet AGL
Weather: no significant weather observed at this time

METAR text: EKVG 182020Z AUTO 16011KT 9999NDV NCD 10/06 Q1026 RMK NCD WIND SKEID 16016KT
Conditions at: EKVG (SORVAAG/VAGAR , DK) observed 2020 UTC 18 April 2019
Temperature: 10.0°C (50°F)
Dewpoint: 6.0°C (43°F) [RH = 76%]
Pressure (altimeter): 30.30 inches Hg (1026.0 mb)
Winds: from the SSE (160 degrees) at 13 MPH (11 knots; 5.7 m/s)
Visibility: missing
Ceiling: at least 12,000 feet AGL
Clouds: sky clear below 12,000 feet AGL
Weather: no significant weather observed at this time

METAR text: EKVG 181950Z AUTO 16011KT 9999NDV NCD 09/06 Q1026 RMK NCD WIND SKEID 16015KT
Conditions at: EKVG (SORVAAG/VAGAR , DK) observed 1950 UTC 18 April 2019
Temperature: 9.0°C (48°F)
Dewpoint: 6.0°C (43°F) [RH = 81%]
Pressure (altimeter): 30.30 inches Hg (1026.0 mb)
Winds: from the SSE (160 degrees) at 13 MPH (11 knots; 5.7 m/s)
Visibility: missing
Ceiling: at least 12,000 feet AGL
Clouds: sky clear below 12,000 feet AGL
Weather: no significant weather observed at this time

METAR text: EKVG 181920Z AUTO 16010KT 9999NDV NCD 10/06 Q1026 RMK NCD WIND SKEID 16016KT
Conditions at: EKVG (SORVAAG/VAGAR , DK) observed 1920 UTC 18 April 2019
Temperature: 10.0°C (50°F)
Dewpoint: 6.0°C (43°F) [RH = 76%]
Pressure (altimeter): 30.30 inches Hg (1026.0 mb)
Winds: from the SSE (160 degrees) at 12 MPH (10 knots; 5.1 m/s)
Visibility: missing
Ceiling: at least 12,000 feet AGL
Clouds: sky clear below 12,000 feet AGL
Weather: no significant weather observed at this time

METAR text: EKVG 181850Z AUTO 16012KT 9999NDV NCD 10/06 Q1026 RMK NCD WIND SKEID 15016KT
Conditions at: EKVG (SORVAAG/VAGAR , DK) observed 1850 UTC 18 April 2019
Temperature: 10.0°C (50°F)
Dewpoint: 6.0°C (43°F) [RH = 76%]
Pressure (altimeter): 30.30 inches Hg (1026.0 mb)
Winds: from the SSE (160 degrees) at 14 MPH (12 knots; 6.2 m/s)
Visibility: missing
Ceiling: at least 12,000 feet AGL
Clouds: sky clear below 12,000 feet AGL
Weather: no significant weather observed at this time

METAR text: EKVG 181820Z AUTO 16012KT 9999NDV NCD 10/06 Q1026 RMK NCD WIND SKEID 16017KT
Conditions at: EKVG (SORVAAG/VAGAR , DK) observed 1820 UTC 18 April 2019
Temperature: 10.0°C (50°F)
Dewpoint: 6.0°C (43°F) [RH = 76%]
Pressure (altimeter): 30.30 inches Hg (1026.0 mb)
Winds: from the SSE (160 degrees) at 14 MPH (12 knots; 6.2 m/s)
Visibility: missing
Ceiling: at least 12,000 feet AGL
Clouds: sky clear below 12,000 feet AGL
Weather: no significant weather observed at this time

METAR text: EKVG 181750Z AUTO 16012KT 9999NDV NCD 10/07 Q1026 RMK NCD WIND SKEID 16018KT
Conditions at: EKVG (SORVAAG/VAGAR , DK) observed 1750 UTC 18 April 2019
Temperature: 10.0°C (50°F)
Dewpoint: 7.0°C (45°F) [RH = 82%]
Pressure (altimeter): 30.30 inches Hg (1026.0 mb)
Winds: from the SSE (160 degrees) at 14 MPH (12 knots; 6.2 m/s)
Visibility: missing
Ceiling: at least 12,000 feet AGL
Clouds: sky clear below 12,000 feet AGL
Weather: no significant weather observed at this time

METAR text: EKVG 181720Z 16012KT 9999 FEW005 FEW012 11/07 Q1026 RMK WIND SKEID 16017KT
Conditions at: EKVG (SORVAAG/VAGAR , DK) observed 1720 UTC 18 April 2019
Temperature: 11.0°C (52°F)
Dewpoint: 7.0°C (45°F) [RH = 76%]
Pressure (altimeter): 30.30 inches Hg (1026.0 mb)
Winds: from the SSE (160 degrees) at 14 MPH (12 knots; 6.2 m/s)
Visibility: 6 or more miles (10+ km)
Ceiling: at least 12,000 feet AGL
Clouds: few clouds at 500 feet AGL
few clouds at 1200 feet AGL
Weather: no significant weather observed at this time

METAR text: EKVG 181651Z 16012KT 9999 FEW005 FEW012 11/07 Q1026 RMK WIND SKEID 16016KT
Conditions at: EKVG (SORVAAG/VAGAR , DK) observed 1651 UTC 18 April 2019
Temperature: 11.0°C (52°F)
Dewpoint: 7.0°C (45°F) [RH = 76%]
Pressure (altimeter): 30.30 inches Hg (1026.0 mb)
Winds: from the SSE (160 degrees) at 14 MPH (12 knots; 6.2 m/s)
Visibility: 6 or more miles (10+ km)
Ceiling: at least 12,000 feet AGL
Clouds: few clouds at 500 feet AGL
few clouds at 1200 feet AGL
Weather: no significant weather observed at this time

METAR text: EKVG 181621Z 17011KT 9999 FEW005 FEW012 11/07 Q1026 RMK WIND SKEID 17015KT
Conditions at: EKVG (SORVAAG/VAGAR , DK) observed 1621 UTC 18 April 2019
Temperature: 11.0°C (52°F)
Dewpoint: 7.0°C (45°F) [RH = 76%]
Pressure (altimeter): 30.30 inches Hg (1026.0 mb)
Winds: from the S (170 degrees) at 13 MPH (11 knots; 5.7 m/s)
Visibility: 6 or more miles (10+ km)
Ceiling: at least 12,000 feet AGL
Clouds: few clouds at 500 feet AGL
few clouds at 1200 feet AGL
Weather: no significant weather observed at this time

METAR text: EKVG 181551Z 16013KT 9999 FEW005 FEW012 11/07 Q1026 RMK WIND SKEID 16017KT
Conditions at: EKVG (SORVAAG/VAGAR , DK) observed 1551 UTC 18 April 2019
Temperature: 11.0°C (52°F)
Dewpoint: 7.0°C (45°F) [RH = 76%]
Pressure (altimeter): 30.30 inches Hg (1026.0 mb)
Winds: from the SSE (160 degrees) at 15 MPH (13 knots; 6.7 m/s)
Visibility: 6 or more miles (10+ km)
Ceiling: at least 12,000 feet AGL
Clouds: few clouds at 500 feet AGL
few clouds at 1200 feet AGL
Weather: no significant weather observed at this time

METAR text: EKVG 181520Z AUTO 17015KT 9999NDV NCD 11/07 Q1026 RMK NCD WIND SKEID 17017KT
Conditions at: EKVG (SORVAAG/VAGAR , DK) observed 1520 UTC 18 April 2019
Temperature: 11.0°C (52°F)
Dewpoint: 7.0°C (45°F) [RH = 76%]
Pressure (altimeter): 30.30 inches Hg (1026.0 mb)
Winds: from the S (170 degrees) at 17 MPH (15 knots; 7.7 m/s)
Visibility: missing
Ceiling: at least 12,000 feet AGL
Clouds: sky clear below 12,000 feet AGL
Weather: no significant weather observed at this time

METAR text: EKVG 181450Z AUTO 17016KT 9999NDV NCD 11/07 Q1026 RMK FEW100/// WIND SKEID 16019KT
Conditions at: EKVG (SORVAAG/VAGAR , DK) observed 1450 UTC 18 April 2019
Temperature: 11.0°C (52°F)
Dewpoint: 7.0°C (45°F) [RH = 76%]
Pressure (altimeter): 30.30 inches Hg (1026.0 mb)
Winds: from the S (170 degrees) at 18 MPH (16 knots; 8.2 m/s)
Visibility: missing
Ceiling: at least 12,000 feet AGL
Clouds: sky clear below 12,000 feet AGL
Weather: no significant weather observed at this time

METAR text: EKVG 181420Z AUTO 17014KT 9999NDV NCD 10/07 Q1026 RMK NCD WIND SKEID 17020KT
Conditions at: EKVG (SORVAAG/VAGAR , DK) observed 1420 UTC 18 April 2019
Temperature: 10.0°C (50°F)
Dewpoint: 7.0°C (45°F) [RH = 82%]
Pressure (altimeter): 30.30 inches Hg (1026.0 mb)
Winds: from the S (170 degrees) at 16 MPH (14 knots; 7.2 m/s)
Visibility: missing
Ceiling: at least 12,000 feet AGL
Clouds: sky clear below 12,000 feet AGL
Weather: no significant weather observed at this time

METAR text: EKVG 181350Z AUTO 17015KT 9999NDV NCD 10/07 Q1025 RMK FEW110/// WIND SKEID 17019KT
Conditions at: EKVG (SORVAAG/VAGAR , DK) observed 1350 UTC 18 April 2019
Temperature: 10.0°C (50°F)
Dewpoint: 7.0°C (45°F) [RH = 82%]
Pressure (altimeter): 30.27 inches Hg (1025.0 mb)
Winds: from the S (170 degrees) at 17 MPH (15 knots; 7.7 m/s)
Visibility: missing
Ceiling: at least 12,000 feet AGL
Clouds: sky clear below 12,000 feet AGL
Weather: no significant weather observed at this time

METAR text: EKVG 181320Z AUTO 16015KT 9999NDV NCD 11/07 Q1025 RMK FEW083/// WIND SKEID 16020KT
Conditions at: EKVG (SORVAAG/VAGAR , DK) observed 1320 UTC 18 April 2019
Temperature: 11.0°C (52°F)
Dewpoint: 7.0°C (45°F) [RH = 76%]
Pressure (altimeter): 30.27 inches Hg (1025.0 mb)
Winds: from the SSE (160 degrees) at 17 MPH (15 knots; 7.7 m/s)
Visibility: missing
Ceiling: at least 12,000 feet AGL
Clouds: sky clear below 12,000 feet AGL
Weather: no significant weather observed at this time

METAR text: EKVG 181250Z AUTO 17016KT 9999NDV NCD 11/07 Q1025 RMK FEW086/// WIND SKEID 17024KT
Conditions at: EKVG (SORVAAG/VAGAR , DK) observed 1250 UTC 18 April 2019
Temperature: 11.0°C (52°F)
Dewpoint: 7.0°C (45°F) [RH = 76%]
Pressure (altimeter): 30.27 inches Hg (1025.0 mb)
Winds: from the S (170 degrees) at 18 MPH (16 knots; 8.2 m/s)
Visibility: missing
Ceiling: at least 12,000 feet AGL
Clouds: sky clear below 12,000 feet AGL
Weather: no significant weather observed at this time

METAR text: EKVG 181220Z AUTO 17016KT 9999NDV NCD 10/07 Q1025 RMK NCD WIND SKEID 17025KT
Conditions at: EKVG (SORVAAG/VAGAR , DK) observed 1220 UTC 18 April 2019
Temperature: 10.0°C (50°F)
Dewpoint: 7.0°C (45°F) [RH = 82%]
Pressure (altimeter): 30.27 inches Hg (1025.0 mb)
Winds: from the S (170 degrees) at 18 MPH (16 knots; 8.2 m/s)
Visibility: missing
Ceiling: at least 12,000 feet AGL
Clouds: sky clear below 12,000 feet AGL
Weather: no significant weather observed at this time

METAR text: EKVG 181150Z AUTO 17016KT 9999NDV NCD 10/07 Q1025 RMK FEW087/// WIND SKEID 17023KT
Conditions at: EKVG (SORVAAG/VAGAR , DK) observed 1150 UTC 18 April 2019
Temperature: 10.0°C (50°F)
Dewpoint: 7.0°C (45°F) [RH = 82%]
Pressure (altimeter): 30.27 inches Hg (1025.0 mb)
Winds: from the S (170 degrees) at 18 MPH (16 knots; 8.2 m/s)
Visibility: missing
Ceiling: at least 12,000 feet AGL
Clouds: sky clear below 12,000 feet AGL
Weather: no significant weather observed at this time

METAR text: EKVG 181120Z AUTO 16014KT 9999NDV NCD 10/07 Q1025 RMK NCD WIND SKEID 17019KT
Conditions at: EKVG (SORVAAG/VAGAR , DK) observed 1120 UTC 18 April 2019
Temperature: 10.0°C (50°F)
Dewpoint: 7.0°C (45°F) [RH = 82%]
Pressure (altimeter): 30.27 inches Hg (1025.0 mb)
Winds: from the SSE (160 degrees) at 16 MPH (14 knots; 7.2 m/s)
Visibility: missing
Ceiling: at least 12,000 feet AGL
Clouds: sky clear below 12,000 feet AGL
Weather: no significant weather observed at this time

METAR text: EKVG 181050Z AUTO 16013KT 9999NDV FEW100/// 10/07 Q1025 RMK FEW110/// WIND SKEID 16017KT
Conditions at: EKVG (SORVAAG/VAGAR , DK) observed 1050 UTC 18 April 2019
Temperature: 10.0°C (50°F)
Dewpoint: 7.0°C (45°F) [RH = 82%]
Pressure (altimeter): 30.27 inches Hg (1025.0 mb)
Winds: from the SSE (160 degrees) at 15 MPH (13 knots; 6.7 m/s)
Visibility: missing
Ceiling: at least 12,000 feet AGL
Clouds: few clouds at 10000 feet AGL
Weather: no significant weather observed at this time

METAR text: EKVG 181020Z AUTO 16013KT 9999NDV FEW110/// 10/07 Q1025 RMK FEW059/// SCT086/// WIND SKEID 16016KT
Conditions at: EKVG (SORVAAG/VAGAR , DK) observed 1020 UTC 18 April 2019
Temperature: 10.0°C (50°F)
Dewpoint: 7.0°C (45°F) [RH = 82%]
Pressure (altimeter): 30.27 inches Hg (1025.0 mb)
Winds: from the SSE (160 degrees) at 15 MPH (13 knots; 6.7 m/s)
Visibility: missing
Ceiling: at least 12,000 feet AGL
Clouds: few clouds at 11000 feet AGL
Weather: no significant weather observed at this time

METAR text: EKVG 180950Z AUTO 16013KT 9999NDV FEW087/// 10/07 Q1025 RMK SCT068/// BKN083/// WIND SKEID 15016KT
Conditions at: EKVG (SORVAAG/VAGAR , DK) observed 0950 UTC 18 April 2019
Temperature: 10.0°C (50°F)
Dewpoint: 7.0°C (45°F) [RH = 82%]
Pressure (altimeter): 30.27 inches Hg (1025.0 mb)
Winds: from the SSE (160 degrees) at 15 MPH (13 knots; 6.7 m/s)
Visibility: missing
Ceiling: at least 12,000 feet AGL
Clouds: few clouds at 8700 feet AGL
Weather: no significant weather observed at this time

METAR text: EKVG 180920Z AUTO 15013KT 9999NDV FEW091/// 10/07 Q1025 RMK SCT054/// BKN083/// WIND SKEID 14012KT 110V170
Conditions at: EKVG (SORVAAG/VAGAR , DK) observed 0920 UTC 18 April 2019
Temperature: 10.0°C (50°F)
Dewpoint: 7.0°C (45°F) [RH = 82%]
Pressure (altimeter): 30.27 inches Hg (1025.0 mb)
Winds: from the SSE (150 degrees) at 15 MPH (13 knots; 6.7 m/s)
Visibility: missing
Ceiling: at least 12,000 feet AGL
Clouds: few clouds at 9100 feet AGL
Weather: no significant weather observed at this time

METAR text: EKVG 180850Z AUTO 15012KT 9999NDV BKN059/// 09/06 Q1025 RMK BKN051/// WIND SKEID 15013KT
Conditions at: EKVG (SORVAAG/VAGAR , DK) observed 0850 UTC 18 April 2019
Temperature: 9.0°C (48°F)
Dewpoint: 6.0°C (43°F) [RH = 81%]
Pressure (altimeter): 30.27 inches Hg (1025.0 mb)
Winds: from the SSE (150 degrees) at 14 MPH (12 knots; 6.2 m/s)
Visibility: missing
Ceiling: 5900 feet AGL
Clouds: broken clouds at 5900 feet AGL
Weather: no significant weather observed at this time

METAR text: EKVG 180820Z AUTO 15012KT 9999NDV FEW048/// 09/07 Q1024 RMK FEW016/// BKN050/// WIND SKEID 15018KT
Conditions at: EKVG (SORVAAG/VAGAR , DK) observed 0820 UTC 18 April 2019
Temperature: 9.0°C (48°F)
Dewpoint: 7.0°C (45°F) [RH = 87%]
Pressure (altimeter): 30.24 inches Hg (1024.0 mb)
Winds: from the SSE (150 degrees) at 14 MPH (12 knots; 6.2 m/s)
Visibility: missing
Ceiling: at least 12,000 feet AGL
Clouds: few clouds at 4800 feet AGL
Weather: no significant weather observed at this time

METAR text: EKVG 180750Z AUTO 15011KT 9999NDV BKN049/// 09/07 Q1024 RMK FEW015/// BKN053/// WIND SKEID 14013KT
Conditions at: EKVG (SORVAAG/VAGAR , DK) observed 0750 UTC 18 April 2019
Temperature: 9.0°C (48°F)
Dewpoint: 7.0°C (45°F) [RH = 87%]
Pressure (altimeter): 30.24 inches Hg (1024.0 mb)
Winds: from the SSE (150 degrees) at 13 MPH (11 knots; 5.7 m/s)
Visibility: missing
Ceiling: 4900 feet AGL
Clouds: broken clouds at 4900 feet AGL
Weather: no significant weather observed at this time

METAR text: EKVG 180720Z AUTO 15012KT 9999NDV -RA BKN049/// 09/07 Q1024 RMK FEW017/// BKN049/// WIND SKEID 15015KT
Conditions at: EKVG (SORVAAG/VAGAR , DK) observed 0720 UTC 18 April 2019
Temperature: 9.0°C (48°F)
Dewpoint: 7.0°C (45°F) [RH = 87%]
Pressure (altimeter): 30.24 inches Hg (1024.0 mb)
Winds: from the SSE (150 degrees) at 14 MPH (12 knots; 6.2 m/s)
Visibility: missing
Ceiling: 4900 feet AGL
Clouds: broken clouds at 4900 feet AGL
Weather: -RA  (light rain)

Forecast for: EKVG (SORVAAG/VAGAR , DK)
Text: TAF EKVG 191423Z 1915/1920 16018KT 9000 FEW005
Forecast period: 1500 to 2000 UTC 19 April 2019
Forecast type: FROM: standard forecast or significant change
Winds: from the SSE (160 degrees) at 21 MPH (18 knots; 9.3 m/s)
Visibility: 6 miles (9 km)
Ceiling: at least 12,000 feet AGL
Clouds: few clouds at 500 feet AGL
Weather: no significant weather forecast for this period
Text: PROB40 1917/1920 4000 BR BKN004
Forecast period: 1700 to 2000 UTC 19 April 2019
Forecast type: PROBABLE: 40 percent likelihood of the following during this time
Visibility: 2.49 miles (4.01 km)
Ceiling: 400 feet AGL
Clouds: broken clouds at 400 feet AGL
Weather: BR  (mist)